Last 6 Hours

Alpine-Roundhouse Btm 6950'

15 Minute Data | America/Los_Angeles
as of 2/18/20 7:22 AM PST
Date & Time Temp (°F) RH (%) Dew Pt (°F) Wet Bulb (°F) Wind Dir (°) Wind Spd (mph) Wind Gust (mph) WindChill (°F) Pressure (inHg) New Snow (in) SnowDepth (in) Latest Rain (In) Daily Rain (In) Daily Min Temp (°F) Daily Max Temp (°F)
2/18/20 - 0715 22.8 72 15.2 20.2 SSW | 207 0.2 2.0 22.8 30.03 0.0 44.0 0.00 0.00 21.9 25.7
2/18/20 - 0700 22.7 74 15.6 20.3 SSW | 203 0.7 3.3 22.7 30.04 0.0 44.0 0.00 0.00 21.9 25.7
2/18/20 - 0645 22.2 73 14.9 19.8 SSW | 211 0.9 3.6 22.2 30.04 0.0 44.0 0.00 0.00 21.9 25.7
2/18/20 - 0630 22.8 73 15.3 20.3 SSW | 200 0.7 2.5 22.8 30.03 0.0 43.9 0.00 0.00 21.9 25.7
2/18/20 - 0615 22.6 73 15.1 20.1 SW | 214 0.6 3.9 22.6 30.04 0.0 44.0 0.00 0.00 21.9 25.7
2/18/20 - 0600 23.1 71 15.0 20.4 SSW | 210 1.0 4.3 23.1 30.04 0.0 44.0 0.00 0.00 21.9 25.7
2/18/20 - 0545 22.9 76 16.4 20.6 SSW | 209 0.6 2.3 22.9 30.03 0.0 44.0 0.00 0.00 21.9 25.7
2/18/20 - 0530 22.8 84 18.6 21.3 S | 187 0.4 2.5 22.8 30.03 0.0 44.0 0.00 0.00 21.9 25.7
2/18/20 - 0515 22.7 75 16.0 20.4 SSW | 204 0.4 2.4 22.7 30.04 0.0 43.9 0.00 0.00 21.9 25.7
2/18/20 - 0500 22.9 77 16.7 20.8 SSW | 202 1.3 4.3 22.9 30.03 0.0 44.0 0.00 0.00 21.9 25.7
2/18/20 - 0445 22.6 74 15.6 20.2 SSW | 199 1.3 4.0 22.6 30.03 0.0 44.1 0.00 0.00 21.9 25.7
2/18/20 - 0430 21.9 77 15.7 19.8 SSW | 203 0.5 3.0 21.9 30.03 0.0 43.9 0.00 0.00 21.9 25.7
2/18/20 - 0415 22.2 74 15.0 19.8 S | 191 0.5 3.1 22.2 30.03 0.0 44.0 0.00 0.00 22.1 25.7
2/18/20 - 0400 22.4 74 15.5 20.1 SSW | 200 1.4 3.3 22.4 30.03 0.0 43.7 0.00 0.00 22.4 25.7
2/18/20 - 0345 23.2 73 15.9 20.7 SSW | 204 0.7 2.6 23.2 30.04 0.0 43.9 0.00 0.00 23.2 25.7
2/18/20 - 0330 23.6 81 18.5 21.8 W | 265 0.0 0.7 23.6 30.03 0.0 44.0 0.00 0.00 23.5 25.7
2/18/20 - 0315 24.6 70 16.1 21.6 SSW | 203 0.5 2.3 24.6 30.04 0.0 43.9 0.00 0.00 24.6 25.7
2/18/20 - 0300 24.6 78 18.6 22.4 S | 189 0.5 2.1 24.6 30.04 0.0 43.9 0.00 0.00 24.6 25.7
2/18/20 - 0245 25.2 74 18.0 22.7 S | 189 0.7 3.2 25.2 30.05 0.0 44.0 0.00 0.00 25.0 25.7
2/18/20 - 0230 25.6 80 20.4 23.6 SSW | 201 1.3 4.1 25.6 30.06 0.0 44.0 0.00 0.00 25.0 25.7
2/18/20 - 0215 25.2 85 21.3 23.7 SSW | 202 0.9 2.6 25.2 30.06 0.0 44.0 0.00 0.00 25.0 25.7
2/18/20 - 0200 25.1 83 20.7 23.5 S | 190 0.3 2.0 25.1 30.06 0.0 44.0 0.00 0.00 25.0 25.7
2/18/20 - 0145 25.3 78 19.5 23.2 SSW | 211 0.8 2.4 25.3 30.06 0.0 43.9 0.00 0.00 25.0 25.7
2/18/20 - 0130 25.5 73 17.9 22.8 SSW | 198 0.7 2.4 25.5 30.06 0.0 44.1 0.00 0.00 25.0 25.7
Max 25.6 85 21.3 23.7 - 1.4 4.3 25.6 30.06 0.0 44.1 0.00 0.00 25.0 25.7
Avg 23.5 76 17.0 21.3 - 0.7 2.9 23.5 30.04 0.0 44.0 0.00 - - -
Min 21.9 70 14.9 19.8 - 0.0 0.7 21.9 30.03 0.0 43.7 0.00 0.00 21.9 25.7
Total - - - - - - - - - - - 0.00 - - -